Shirahamamaru — JG4872 — position and weather

sailwx.info

Track history (hours):
 
Tides and Currents Weather Stations Pressure Air Temp Water Temp Dewpoint Dewpoint Depression Visibility Wind Speed Wind Dir Waves Ship Positions

Shirahamamaru

Last reported at 2017-Mar-29 10:33 UTC. Time now 2017-Mar-29 15:13 UTC.
Position N 35°12' E 139°46'.

Length 79 m; draft 3.2 m.

Type: Passenger vessel. MMSI: 431000239.

Date/timePositionNaut miles runAvg speedWind from/ knotsBaromVisibWave heightAir tempDewpointWater temp
2017-Mar-29 10:33N 35°12' E 139°46'2 2.2
2017-Mar-29 09:32N 35°11' E 139°48'5 4.8
2017-Mar-29 08:30N 35°13' E 139°43'6 6.0
2017-Mar-29 07:33N 35°10' E 139°49'6 5.3
2017-Mar-29 06:31N 35°13' E 139°43'4 3.7
2017-Mar-29 05:33N 35°11' E 139°47'4 3.1
2017-Mar-29 04:21N 35°13' E 139°43'5 6.0
2017-Mar-29 03:33N 35°11' E 139°48'5 4.5
2017-Mar-29 02:29N 35°13' E 139°43'5 5.4
2017-Mar-29 01:33N 35°11' E 139°48'5 4.8
2017-Mar-29 00:31N 35°13' E 139°43'3 3.1
2017-Mar-28 23:34N 35°12' E 139°46'2 1.8
2017-Mar-28 22:31N 35°13' E 139°44'3 2.8
2017-Mar-28 21:32N 35°11' E 139°47'3 0.3
2017-Mar-28 10:26N 35°13' E 139°44'4 4.4
2017-Mar-28 09:33N 35°11' E 139°48'5 4.7
2017-Mar-28 08:30N 35°13' E 139°43'6 6.0
2017-Mar-28 07:34N 35°10' E 139°49'6 5.2
2017-Mar-28 06:27N 35°13' E 139°43'4 4.4
2017-Mar-28 05:34N 35°12' E 139°47'3 2.6
2017-Mar-28 04:31N 35°13' E 139°44'4 3.9
2017-Mar-28 03:33N 35°11' E 139°48'5 4.6
2017-Mar-28 02:31N 35°13' E 139°43'5 5.0
2017-Mar-28 01:33N 35°11' E 139°48'4 4.3
2017-Mar-28 00:33N 35°13' E 139°44'2 2.4
2017-Mar-27 23:33N 35°12' E 139°46'1 1.3
2017-Mar-27 22:34N 35°13' E 139°45'2 2.2
2017-Mar-27 21:33N 35°11' E 139°47'4 0.3
2017-Mar-27 10:18N 35°13' E 139°43'5 6.5
2017-Mar-27 09:33N 35°11' E 139°48'5 4.3
2017-Mar-27 08:26N 35°13' E 139°43'6 6.4
2017-Mar-27 07:33N 35°10' E 139°49'6 5.3
2017-Mar-27 06:30N 35°13' E 139°43'4 4.3
2017-Mar-27 05:32N 35°11' E 139°47'3 2.7
2017-Mar-27 04:33N 35°13' E 139°45'4 3.6
2017-Mar-27 03:33N 35°11' E 139°48'5 4.5
2017-Mar-27 02:25N 35°13' E 139°43'5 5.7
2017-Mar-27 01:33N 35°11' E 139°48'5 4.7
2017-Mar-27 00:32N 35°13' E 139°43'3 3.4
2017-Mar-26 23:33N 35°12' E 139°47'2 2.0
2017-Mar-26 22:33N 35°13' E 139°45'3 2.8
2017-Mar-26 21:32N 35°11' E 139°47'2 0.2
2017-Mar-26 10:30N 35°12' E 139°45'3 3.0
2017-Mar-26 09:33N 35°11' E 139°48'5 4.6
2017-Mar-26 08:28N 35°13' E 139°43'6 6.2
2017-Mar-26 07:33N 35°10' E 139°49'6 5.2
2017-Mar-26 06:27N 35°13' E 139°43'4 4.7
2017-Mar-26 05:33N 35°11' E 139°47'3 3.0
2017-Mar-26 04:32N 35°13' E 139°44'4 3.9
2017-Mar-26 03:33N 35°11' E 139°48'5 4.3
2017-Mar-26 02:25N 35°13' E 139°43'5 5.6
2017-Mar-26 01:33N 35°11' E 139°48'5 4.7
2017-Mar-26 00:30N 35°13' E 139°43'3 3.1
2017-Mar-25 23:33N 35°12' E 139°46'2 1.6
2017-Mar-25 22:31N 35°13' E 139°44'2 2.4
2017-Mar-25 21:34N 35°12' E 139°47'1 0.1
2017-Mar-25 10:33N 35°12' E 139°46'2 2.4
2017-Mar-25 09:33N 35°11' E 139°48'5 4.4
2017-Mar-25 08:27N 35°13' E 139°43'6 6.6
2017-Mar-25 07:33N 35°10' E 139°49'5 5.3
2017-Mar-25 06:33N 35°13' E 139°44'3 3.5
2017-Mar-25 05:33N 35°11' E 139°47'3 2.7
2017-Mar-25 04:33N 35°13' E 139°44'4 3.7
2017-Mar-25 03:33N 35°11' E 139°48'5 4.6
2017-Mar-25 02:29N 35°13' E 139°43'5 5.3
2017-Mar-25 01:33N 35°11' E 139°48'5 4.5
2017-Mar-25 00:26N 35°13' E 139°43'3 3.2
2017-Mar-24 23:33N 35°12' E 139°46'1 1.2
2017-Mar-24 22:33N 35°13' E 139°45'2 2.2
2017-Mar-24 21:32N 35°11' E 139°47'1 0.1
2017-Mar-24 10:33N 35°12' E 139°46'2 2.1
2017-Mar-24 09:33N 35°11' E 139°48'5 4.3
2017-Mar-24 08:27N 35°13' E 139°43'6 6.3
2017-Mar-24 07:33N 35°10' E 139°49'6 5.3
2017-Mar-24 06:30N 35°13' E 139°43'4 4.1
2017-Mar-24 05:33N 35°12' E 139°47'3 2.7
2017-Mar-24 04:31N 35°13' E 139°44'4 3.9
2017-Mar-24 03:33N 35°11' E 139°48'5 4.8
2017-Mar-24 02:33N 35°13' E 139°43'5 4.5
2017-Mar-24 01:33N 35°11' E 139°48'5 4.3
2017-Mar-24 00:25N 35°13' E 139°43'3 3.3
2017-Mar-23 23:33N 35°12' E 139°46'2 1.7
2017-Mar-23 22:31N 35°13' E 139°44'3 2.7
2017-Mar-23 21:33N 35°11' E 139°47'1 0.1
2017-Mar-23 10:33N 35°12' E 139°46'2 2.3
2017-Mar-23 09:32N 35°11' E 139°48'5 4.8
2017-Mar-23 08:32N 35°13' E 139°43'6 5.7
2017-Mar-23 07:33N 35°10' E 139°49'6 5.5
2017-Mar-23 06:30N 35°13' E 139°43'4 4.6
2017-Mar-23 05:31N 35°11' E 139°48'3 2.9
2017-Mar-23 04:33N 35°13' E 139°45'3 3.3
2017-Mar-23 03:32N 35°11' E 139°48'5 4.7
2017-Mar-23 02:29N 35°13' E 139°43'5 5.3
2017-Mar-23 01:32N 35°11' E 139°48'5 4.6
2017-Mar-23 00:27N 35°13' E 139°43'3 3.3
2017-Mar-22 23:33N 35°12' E 139°46'2 1.7
2017-Mar-22 22:32N 35°13' E 139°44'2 2.5
2017-Mar-22 21:33N 35°11' E 139°47'1 0.1
2017-Mar-22 10:33N 35°12' E 139°46'2 2.1
2017-Mar-22 09:33N 35°11' E 139°48'4 4.1
2017-Mar-22 08:33N 35°13' E 139°44'5 5.0
2017-Mar-22 07:34N 35°10' E 139°49'5 5.2
2017-Mar-22 06:33N 35°13' E 139°44'4 3.5
2017-Mar-22 05:33N 35°11' E 139°47'2 2.4
2017-Mar-22 04:33N 35°13' E 139°45'3 3.1
2017-Mar-22 03:33N 35°11' E 139°48'4 4.2
2017-Mar-22 02:33N 35°13' E 139°44'4 4.3
2017-Mar-22 01:33N 35°11' E 139°48'4 4.4
2017-Mar-22 00:33N 35°13' E 139°44'2 2.4
2017-Mar-21 23:33N 35°12' E 139°46'1 1.4
2017-Mar-21 22:33N 35°13' E 139°45'2 2.3
2017-Mar-21 21:33N 35°11' E 139°47'2 0.1
2017-Mar-21 10:33N 35°12' E 139°46'2 2.4
2017-Mar-21 09:33N 35°11' E 139°48'4 4.0
2017-Mar-21 08:33N 35°13' E 139°44'5 4.8
2017-Mar-21 07:33N 35°10' E 139°49'5 5.1
2017-Mar-21 06:33N 35°13' E 139°44'3 3.4
2017-Mar-21 05:33N 35°11' E 139°47'2 2.2
2017-Mar-21 04:33N 35°13' E 139°45'3 2.9
2017-Mar-21 03:33N 35°11' E 139°48'4 4.2
2017-Mar-21 02:33N 35°13' E 139°44'4 4.3
2017-Mar-21 01:33N 35°11' E 139°48'4 4.5
2017-Mar-21 00:33N 35°13' E 139°43'2 2.5
2017-Mar-20 23:33N 35°12' E 139°46'1 1.3
2017-Mar-20 22:33N 35°13' E 139°45'2 2.1
2017-Mar-20 21:33N 35°12' E 139°47'2 0.2
2017-Mar-20 12:17N 35°10' E 139°49'6 8.0
2017-Mar-20 11:33N 35°13' E 139°43'3 2.8
2017-Mar-20 10:34N 35°12' E 139°46'3 2.6
2017-Mar-20 09:33N 35°11' E 139°49'5 4.8
2017-Mar-20 08:33N 35°13' E 139°44'5 5.1
2017-Mar-20 07:33N 35°10' E 139°49'5 4.9
2017-Mar-20 06:33N 35°13' E 139°44'3 3.1
2017-Mar-20 05:33N 35°12' E 139°47'2 2.2
2017-Mar-20 04:33N 35°13' E 139°45'3 3.0
2017-Mar-20 03:33N 35°11' E 139°48'4 4.0
2017-Mar-20 02:33N 35°13' E 139°44'4 4.3
2017-Mar-20 01:33N 35°11' E 139°48'4 4.5
2017-Mar-20 00:33N 35°13' E 139°43'2 2.4
2017-Mar-19 23:33N 35°12' E 139°46'1 1.3
2017-Mar-19 22:33N 35°13' E 139°45'2 2.1
2017-Mar-19 21:33N 35°12' E 139°47'2 0.2
2017-Mar-19 12:33N 35°10' E 139°49'3 3.1
2017-Mar-19 11:34N 35°12' E 139°46'  
Track history (hours):
 
Tides and Currents Weather Stations Pressure Air Temp Water Temp Dewpoint Dewpoint Depression Visibility Wind Speed Wind Dir Waves Ship Positions

Shirahamamaru

Last reported at 2017-Mar-29 10:33 UTC. Time now 2017-Mar-29 15:13 UTC.
Position N 35°12' E 139°46'.

Length 79 m; draft 3.2 m.

Type: Passenger vessel. MMSI: 431000239.

Date/timePositionNaut miles runAvg speedWind from/ knotsBaromVisibWave heightAir tempDewpointWater temp
2017-Mar-29 10:33N 35°12' E 139°46'2 2.2
2017-Mar-29 09:32N 35°11' E 139°48'5 4.8
2017-Mar-29 08:30N 35°13' E 139°43'6 6.0
2017-Mar-29 07:33N 35°10' E 139°49'6 5.3
2017-Mar-29 06:31N 35°13' E 139°43'4 3.7
2017-Mar-29 05:33N 35°11' E 139°47'4 3.1
2017-Mar-29 04:21N 35°13' E 139°43'5 6.0
2017-Mar-29 03:33N 35°11' E 139°48'5 4.5
2017-Mar-29 02:29N 35°13' E 139°43'5 5.4
2017-Mar-29 01:33N 35°11' E 139°48'5 4.8
2017-Mar-29 00:31N 35°13' E 139°43'3 3.1
2017-Mar-28 23:34N 35°12' E 139°46'2 1.8
2017-Mar-28 22:31N 35°13' E 139°44'3 2.8
2017-Mar-28 21:32N 35°11' E 139°47'3 0.3
2017-Mar-28 10:26N 35°13' E 139°44'4 4.4
2017-Mar-28 09:33N 35°11' E 139°48'5 4.7
2017-Mar-28 08:30N 35°13' E 139°43'6 6.0
2017-Mar-28 07:34N 35°10' E 139°49'6 5.2
2017-Mar-28 06:27N 35°13' E 139°43'4 4.4
2017-Mar-28 05:34N 35°12' E 139°47'3 2.6
2017-Mar-28 04:31N 35°13' E 139°44'4 3.9
2017-Mar-28 03:33N 35°11' E 139°48'5 4.6
2017-Mar-28 02:31N 35°13' E 139°43'5 5.0
2017-Mar-28 01:33N 35°11' E 139°48'4 4.3
2017-Mar-28 00:33N 35°13' E 139°44'2 2.4
2017-Mar-27 23:33N 35°12' E 139°46'1 1.3
2017-Mar-27 22:34N 35°13' E 139°45'2 2.2
2017-Mar-27 21:33N 35°11' E 139°47'4 0.3
2017-Mar-27 10:18N 35°13' E 139°43'5 6.5
2017-Mar-27 09:33N 35°11' E 139°48'5 4.3
2017-Mar-27 08:26N 35°13' E 139°43'6 6.4
2017-Mar-27 07:33N 35°10' E 139°49'6 5.3
2017-Mar-27 06:30N 35°13' E 139°43'4 4.3
2017-Mar-27 05:32N 35°11' E 139°47'3 2.7
2017-Mar-27 04:33N 35°13' E 139°45'4 3.6
2017-Mar-27 03:33N 35°11' E 139°48'5 4.5
2017-Mar-27 02:25N 35°13' E 139°43'5 5.7
2017-Mar-27 01:33N 35°11' E 139°48'5 4.7
2017-Mar-27 00:32N 35°13' E 139°43'3 3.4
2017-Mar-26 23:33N 35°12' E 139°47'2 2.0
2017-Mar-26 22:33N 35°13' E 139°45'3 2.8
2017-Mar-26 21:32N 35°11' E 139°47'2 0.2
2017-Mar-26 10:30N 35°12' E 139°45'3 3.0
2017-Mar-26 09:33N 35°11' E 139°48'5 4.6
2017-Mar-26 08:28N 35°13' E 139°43'6 6.2
2017-Mar-26 07:33N 35°10' E 139°49'6 5.2
2017-Mar-26 06:27N 35°13' E 139°43'4 4.7
2017-Mar-26 05:33N 35°11' E 139°47'3 3.0
2017-Mar-26 04:32N 35°13' E 139°44'4 3.9
2017-Mar-26 03:33N 35°11' E 139°48'5 4.3
2017-Mar-26 02:25N 35°13' E 139°43'5 5.6
2017-Mar-26 01:33N 35°11' E 139°48'5 4.7
2017-Mar-26 00:30N 35°13' E 139°43'3 3.1
2017-Mar-25 23:33N 35°12' E 139°46'2 1.6
2017-Mar-25 22:31N 35°13' E 139°44'2 2.4
2017-Mar-25 21:34N 35°12' E 139°47'1 0.1
2017-Mar-25 10:33N 35°12' E 139°46'2 2.4
2017-Mar-25 09:33N 35°11' E 139°48'5 4.4
2017-Mar-25 08:27N 35°13' E 139°43'6 6.6
2017-Mar-25 07:33N 35°10' E 139°49'5 5.3
2017-Mar-25 06:33N 35°13' E 139°44'3 3.5
2017-Mar-25 05:33N 35°11' E 139°47'3 2.7
2017-Mar-25 04:33N 35°13' E 139°44'4 3.7
2017-Mar-25 03:33N 35°11' E 139°48'5 4.6
2017-Mar-25 02:29N 35°13' E 139°43'5 5.3
2017-Mar-25 01:33N 35°11' E 139°48'5 4.5
2017-Mar-25 00:26N 35°13' E 139°43'3 3.2
2017-Mar-24 23:33N 35°12' E 139°46'1 1.2
2017-Mar-24 22:33N 35°13' E 139°45'2 2.2
2017-Mar-24 21:32N 35°11' E 139°47'1 0.1
2017-Mar-24 10:33N 35°12' E 139°46'2 2.1
2017-Mar-24 09:33N 35°11' E 139°48'5 4.3
2017-Mar-24 08:27N 35°13' E 139°43'6 6.3
2017-Mar-24 07:33N 35°10' E 139°49'6 5.3
2017-Mar-24 06:30N 35°13' E 139°43'4 4.1
2017-Mar-24 05:33N 35°12' E 139°47'3 2.7
2017-Mar-24 04:31N 35°13' E 139°44'4 3.9
2017-Mar-24 03:33N 35°11' E 139°48'5 4.8
2017-Mar-24 02:33N 35°13' E 139°43'5 4.5
2017-Mar-24 01:33N 35°11' E 139°48'5 4.3
2017-Mar-24 00:25N 35°13' E 139°43'3 3.3
2017-Mar-23 23:33N 35°12' E 139°46'2 1.7
2017-Mar-23 22:31N 35°13' E 139°44'3 2.7
2017-Mar-23 21:33N 35°11' E 139°47'1 0.1
2017-Mar-23 10:33N 35°12' E 139°46'2 2.3
2017-Mar-23 09:32N 35°11' E 139°48'5 4.8
2017-Mar-23 08:32N 35°13' E 139°43'6 5.7
2017-Mar-23 07:33N 35°10' E 139°49'6 5.5
2017-Mar-23 06:30N 35°13' E 139°43'4 4.6
2017-Mar-23 05:31N 35°11' E 139°48'3 2.9
2017-Mar-23 04:33N 35°13' E 139°45'3 3.3
2017-Mar-23 03:32N 35°11' E 139°48'5 4.7
2017-Mar-23 02:29N 35°13' E 139°43'5 5.3
2017-Mar-23 01:32N 35°11' E 139°48'5 4.6
2017-Mar-23 00:27N 35°13' E 139°43'3 3.3
2017-Mar-22 23:33N 35°12' E 139°46'2 1.7
2017-Mar-22 22:32N 35°13' E 139°44'2 2.5
2017-Mar-22 21:33N 35°11' E 139°47'1 0.1
2017-Mar-22 10:33N 35°12' E 139°46'2 2.1
2017-Mar-22 09:33N 35°11' E 139°48'4 4.1
2017-Mar-22 08:33N 35°13' E 139°44'5 5.0
2017-Mar-22 07:34N 35°10' E 139°49'5 5.2
2017-Mar-22 06:33N 35°13' E 139°44'4 3.5
2017-Mar-22 05:33N 35°11' E 139°47'2 2.4
2017-Mar-22 04:33N 35°13' E 139°45'3 3.1
2017-Mar-22 03:33N 35°11' E 139°48'4 4.2
2017-Mar-22 02:33N 35°13' E 139°44'4 4.3
2017-Mar-22 01:33N 35°11' E 139°48'4 4.4
2017-Mar-22 00:33N 35°13' E 139°44'2 2.4
2017-Mar-21 23:33N 35°12' E 139°46'1 1.4
2017-Mar-21 22:33N 35°13' E 139°45'2 2.3
2017-Mar-21 21:33N 35°11' E 139°47'2 0.1
2017-Mar-21 10:33N 35°12' E 139°46'2 2.4
2017-Mar-21 09:33N 35°11' E 139°48'4 4.0
2017-Mar-21 08:33N 35°13' E 139°44'5 4.8
2017-Mar-21 07:33N 35°10' E 139°49'5 5.1
2017-Mar-21 06:33N 35°13' E 139°44'3 3.4
2017-Mar-21 05:33N 35°11' E 139°47'2 2.2
2017-Mar-21 04:33N 35°13' E 139°45'3 2.9
2017-Mar-21 03:33N 35°11' E 139°48'4 4.2
2017-Mar-21 02:33N 35°13' E 139°44'4 4.3
2017-Mar-21 01:33N 35°11' E 139°48'4 4.5
2017-Mar-21 00:33N 35°13' E 139°43'2 2.5
2017-Mar-20 23:33N 35°12' E 139°46'1 1.3
2017-Mar-20 22:33N 35°13' E 139°45'2 2.1
2017-Mar-20 21:33N 35°12' E 139°47'2 0.2
2017-Mar-20 12:17N 35°10' E 139°49'6 8.0
2017-Mar-20 11:33N 35°13' E 139°43'3 2.8
2017-Mar-20 10:34N 35°12' E 139°46'3 2.6
2017-Mar-20 09:33N 35°11' E 139°49'5 4.8
2017-Mar-20 08:33N 35°13' E 139°44'5 5.1
2017-Mar-20 07:33N 35°10' E 139°49'5 4.9
2017-Mar-20 06:33N 35°13' E 139°44'3 3.1
2017-Mar-20 05:33N 35°12' E 139°47'2 2.2
2017-Mar-20 04:33N 35°13' E 139°45'3 3.0
2017-Mar-20 03:33N 35°11' E 139°48'4 4.0
2017-Mar-20 02:33N 35°13' E 139°44'4 4.3
2017-Mar-20 01:33N 35°11' E 139°48'4 4.5
2017-Mar-20 00:33N 35°13' E 139°43'2 2.4
2017-Mar-19 23:33N 35°12' E 139°46'1 1.3
2017-Mar-19 22:33N 35°13' E 139°45'2 2.1
2017-Mar-19 21:33N 35°12' E 139°47'2 0.2
2017-Mar-19 12:33N 35°10' E 139°49'3 3.1
2017-Mar-19 11:34N 35°12' E 139°46'  

Dump ship's entire track history